sensor_id;sensor_type;location;lat;lon;timestamp;P1;durP1;ratioP1;P2;durP2;ratioP2
2656;SDS011;1338;48.176;11.792;2023-05-18T00:00:06;11.17;;;5.10;;
2656;SDS011;1338;48.176;11.792;2023-05-18T00:02:36;7.50;;;5.00;;
2656;SDS011;1338;48.176;11.792;2023-05-18T00:05:06;8.27;;;5.20;;
2656;SDS011;1338;48.176;11.792;2023-05-18T00:07:35;5.83;;;4.30;;
2656;SDS011;1338;48.176;11.792;2023-05-18T00:10:05;6.70;;;5.23;;
2656;SDS011;1338;48.176;11.792;2023-05-18T00:12:34;7.10;;;5.03;;
2656;SDS011;1338;48.176;11.792;2023-05-18T00:15:02;8.20;;;5.60;;
2656;SDS011;1338;48.176;11.792;2023-05-18T00:17:33;6.23;;;4.67;;
2656;SDS011;1338;48.176;11.792;2023-05-18T00:20:01;9.70;;;5.53;;
2656;SDS011;1338;48.176;11.792;2023-05-18T00:22:30;6.03;;;4.80;;
2656;SDS011;1338;48.176;11.792;2023-05-18T00:24:58;5.47;;;4.50;;
2656;SDS011;1338;48.176;11.792;2023-05-18T00:27:27;6.40;;;4.90;;
2656;SDS011;1338;48.176;11.792;2023-05-18T00:29:55;6.13;;;4.73;;
2656;SDS011;1338;48.176;11.792;2023-05-18T00:32:23;7.07;;;5.03;;
2656;SDS011;1338;48.176;11.792;2023-05-18T00:34:53;6.73;;;5.00;;
2656;SDS011;1338;48.176;11.792;2023-05-18T00:37:21;4.90;;;4.10;;
2656;SDS011;1338;48.176;11.792;2023-05-18T00:39:49;6.30;;;4.73;;
2656;SDS011;1338;48.176;11.792;2023-05-18T00:42:18;6.00;;;4.47;;
2656;SDS011;1338;48.176;11.792;2023-05-18T00:44:46;5.63;;;4.50;;
2656;SDS011;1338;48.176;11.792;2023-05-18T00:47:14;5.30;;;4.53;;
2656;SDS011;1338;48.176;11.792;2023-05-18T00:49:43;5.80;;;5.20;;
2656;SDS011;1338;48.176;11.792;2023-05-18T00:52:13;8.40;;;4.90;;
2656;SDS011;1338;48.176;11.792;2023-05-18T00:54:42;4.73;;;4.23;;
2656;SDS011;1338;48.176;11.792;2023-05-18T00:57:11;5.63;;;4.50;;
2656;SDS011;1338;48.176;11.792;2023-05-18T00:59:39;5.40;;;4.83;;
2656;SDS011;1338;48.176;11.792;2023-05-18T01:02:07;6.03;;;4.50;;
2656;SDS011;1338;48.176;11.792;2023-05-18T01:04:37;5.90;;;5.10;;
2656;SDS011;1338;48.176;11.792;2023-05-18T01:07:06;5.67;;;4.63;;
2656;SDS011;1338;48.176;11.792;2023-05-18T01:09:36;5.60;;;4.73;;
2656;SDS011;1338;48.176;11.792;2023-05-18T01:12:06;5.53;;;4.63;;
2656;SDS011;1338;48.176;11.792;2023-05-18T01:14:46;7.47;;;5.60;;
2656;SDS011;1338;48.176;11.792;2023-05-18T01:17:21;4.97;;;4.13;;
2656;SDS011;1338;48.176;11.792;2023-05-18T01:20:03;8.13;;;4.77;;
2656;SDS011;1338;48.176;11.792;2023-05-18T01:22:49;5.70;;;4.87;;
2656;SDS011;1338;48.176;11.792;2023-05-18T01:25:45;7.70;;;5.17;;
2656;SDS011;1338;48.176;11.792;2023-05-18T01:28:18;6.80;;;4.50;;
2656;SDS011;1338;48.176;11.792;2023-05-18T01:30:52;6.57;;;5.17;;
2656;SDS011;1338;48.176;11.792;2023-05-18T01:33:21;5.63;;;5.03;;
2656;SDS011;1338;48.176;11.792;2023-05-18T01:35:50;7.50;;;4.67;;
2656;SDS011;1338;48.176;11.792;2023-05-18T01:38:21;7.10;;;5.10;;
2656;SDS011;1338;48.176;11.792;2023-05-18T01:40:52;5.33;;;4.43;;
2656;SDS011;1338;48.176;11.792;2023-05-18T01:43:28;8.97;;;3.97;;
2656;SDS011;1338;48.176;11.792;2023-05-18T01:46:03;7.33;;;5.57;;
2656;SDS011;1338;48.176;11.792;2023-05-18T01:48:38;6.53;;;5.47;;
2656;SDS011;1338;48.176;11.792;2023-05-18T01:51:09;6.83;;;5.20;;
2656;SDS011;1338;48.176;11.792;2023-05-18T01:53:41;5.63;;;5.13;;
2656;SDS011;1338;48.176;11.792;2023-05-18T01:56:12;6.10;;;5.00;;
2656;SDS011;1338;48.176;11.792;2023-05-18T01:58:43;7.57;;;5.73;;
2656;SDS011;1338;48.176;11.792;2023-05-18T02:01:12;6.90;;;4.63;;
2656;SDS011;1338;48.176;11.792;2023-05-18T02:03:45;5.20;;;4.70;;
2656;SDS011;1338;48.176;11.792;2023-05-18T02:06:14;7.50;;;5.37;;
2656;SDS011;1338;48.176;11.792;2023-05-18T02:08:42;7.17;;;4.97;;
2656;SDS011;1338;48.176;11.792;2023-05-18T02:11:11;6.13;;;4.80;;
2656;SDS011;1338;48.176;11.792;2023-05-18T02:13:39;9.10;;;6.03;;
2656;SDS011;1338;48.176;11.792;2023-05-18T02:16:09;7.07;;;5.13;;
2656;SDS011;1338;48.176;11.792;2023-05-18T02:18:37;5.77;;;4.90;;
2656;SDS011;1338;48.176;11.792;2023-05-18T02:21:07;8.07;;;6.00;;
2656;SDS011;1338;48.176;11.792;2023-05-18T02:23:35;6.00;;;5.30;;
2656;SDS011;1338;48.176;11.792;2023-05-18T02:26:05;7.37;;;5.00;;
2656;SDS011;1338;48.176;11.792;2023-05-18T02:28:34;5.47;;;4.73;;
2656;SDS011;1338;48.176;11.792;2023-05-18T02:31:05;6.33;;;4.50;;
2656;SDS011;1338;48.176;11.792;2023-05-18T02:33:36;6.30;;;4.80;;
2656;SDS011;1338;48.176;11.792;2023-05-18T02:36:06;7.17;;;5.30;;
2656;SDS011;1338;48.176;11.792;2023-05-18T02:38:36;5.50;;;4.60;;
2656;SDS011;1338;48.176;11.792;2023-05-18T02:41:05;8.10;;;5.53;;
2656;SDS011;1338;48.176;11.792;2023-05-18T02:43:33;8.60;;;6.60;;
2656;SDS011;1338;48.176;11.792;2023-05-18T02:46:02;8.43;;;5.60;;
2656;SDS011;1338;48.176;11.792;2023-05-18T02:48:32;7.43;;;5.33;;
2656;SDS011;1338;48.176;11.792;2023-05-18T02:51:01;7.30;;;5.73;;
2656;SDS011;1338;48.176;11.792;2023-05-18T02:53:30;6.40;;;5.23;;
2656;SDS011;1338;48.176;11.792;2023-05-18T02:56:05;7.67;;;5.30;;
2656;SDS011;1338;48.176;11.792;2023-05-18T02:58:43;12.10;;;5.77;;
2656;SDS011;1338;48.176;11.792;2023-05-18T03:01:17;10.37;;;6.67;;
2656;SDS011;1338;48.176;11.792;2023-05-18T03:03:50;6.47;;;5.70;;
2656;SDS011;1338;48.176;11.792;2023-05-18T03:06:19;7.73;;;6.40;;
2656;SDS011;1338;48.176;11.792;2023-05-18T03:08:53;6.30;;;4.77;;
2656;SDS011;1338;48.176;11.792;2023-05-18T03:11:28;9.17;;;6.23;;
2656;SDS011;1338;48.176;11.792;2023-05-18T03:13:56;7.43;;;6.10;;
2656;SDS011;1338;48.176;11.792;2023-05-18T03:16:24;7.60;;;5.50;;
2656;SDS011;1338;48.176;11.792;2023-05-18T03:18:54;7.20;;;5.37;;
2656;SDS011;1338;48.176;11.792;2023-05-18T03:21:30;6.13;;;5.30;;
2656;SDS011;1338;48.176;11.792;2023-05-18T03:24:01;9.30;;;5.80;;
2656;SDS011;1338;48.176;11.792;2023-05-18T03:26:33;6.63;;;5.80;;
2656;SDS011;1338;48.176;11.792;2023-05-18T03:29:02;6.13;;;5.47;;
2656;SDS011;1338;48.176;11.792;2023-05-18T03:31:30;7.40;;;5.37;;
2656;SDS011;1338;48.176;11.792;2023-05-18T03:34:00;5.73;;;5.20;;
2656;SDS011;1338;48.176;11.792;2023-05-18T03:36:29;5.50;;;5.00;;
2656;SDS011;1338;48.176;11.792;2023-05-18T03:38:58;6.17;;;5.50;;
2656;SDS011;1338;48.176;11.792;2023-05-18T03:41:26;9.33;;;5.50;;
2656;SDS011;1338;48.176;11.792;2023-05-18T03:43:55;7.00;;;5.83;;
2656;SDS011;1338;48.176;11.792;2023-05-18T03:46:23;8.27;;;5.87;;
2656;SDS011;1338;48.176;11.792;2023-05-18T03:48:52;6.40;;;5.20;;
2656;SDS011;1338;48.176;11.792;2023-05-18T03:51:28;7.60;;;5.27;;
2656;SDS011;1338;48.176;11.792;2023-05-18T03:53:58;6.23;;;5.50;;
2656;SDS011;1338;48.176;11.792;2023-05-18T03:56:27;7.13;;;6.00;;
2656;SDS011;1338;48.176;11.792;2023-05-18T03:58:56;7.70;;;5.60;;
2656;SDS011;1338;48.176;11.792;2023-05-18T04:01:25;6.30;;;5.47;;
2656;SDS011;1338;48.176;11.792;2023-05-18T04:03:55;8.27;;;5.90;;
2656;SDS011;1338;48.176;11.792;2023-05-18T04:06:24;8.27;;;6.20;;
2656;SDS011;1338;48.176;11.792;2023-05-18T04:08:54;7.37;;;5.37;;
2656;SDS011;1338;48.176;11.792;2023-05-18T04:11:24;9.53;;;6.43;;
2656;SDS011;1338;48.176;11.792;2023-05-18T04:13:52;6.60;;;5.33;;
2656;SDS011;1338;48.176;11.792;2023-05-18T04:16:20;6.40;;;5.30;;
2656;SDS011;1338;48.176;11.792;2023-05-18T04:18:49;6.00;;;5.40;;
2656;SDS011;1338;48.176;11.792;2023-05-18T04:21:19;8.00;;;6.50;;
2656;SDS011;1338;48.176;11.792;2023-05-18T04:23:48;6.20;;;5.63;;
2656;SDS011;1338;48.176;11.792;2023-05-18T04:26:18;8.20;;;6.20;;
2656;SDS011;1338;48.176;11.792;2023-05-18T04:28:46;6.87;;;6.17;;
2656;SDS011;1338;48.176;11.792;2023-05-18T04:31:15;6.53;;;5.93;;
2656;SDS011;1338;48.176;11.792;2023-05-18T04:33:44;5.97;;;5.43;;
2656;SDS011;1338;48.176;11.792;2023-05-18T04:36:13;6.20;;;5.37;;
2656;SDS011;1338;48.176;11.792;2023-05-18T04:38:47;5.97;;;5.47;;
2656;SDS011;1338;48.176;11.792;2023-05-18T04:41:18;6.10;;;5.47;;
2656;SDS011;1338;48.176;11.792;2023-05-18T04:43:47;6.87;;;6.17;;
2656;SDS011;1338;48.176;11.792;2023-05-18T04:46:16;6.83;;;5.30;;
2656;SDS011;1338;48.176;11.792;2023-05-18T04:48:45;7.27;;;6.00;;
2656;SDS011;1338;48.176;11.792;2023-05-18T04:51:15;6.70;;;5.80;;
2656;SDS011;1338;48.176;11.792;2023-05-18T04:53:47;6.93;;;6.23;;
2656;SDS011;1338;48.176;11.792;2023-05-18T04:56:16;7.57;;;6.60;;
2656;SDS011;1338;48.176;11.792;2023-05-18T04:58:47;8.37;;;5.67;;
2656;SDS011;1338;48.176;11.792;2023-05-18T05:01:16;8.17;;;6.43;;
2656;SDS011;1338;48.176;11.792;2023-05-18T05:03:46;8.40;;;7.10;;
2656;SDS011;1338;48.176;11.792;2023-05-18T05:06:15;6.90;;;6.20;;
2656;SDS011;1338;48.176;11.792;2023-05-18T05:08:43;6.93;;;6.10;;
2656;SDS011;1338;48.176;11.792;2023-05-18T05:11:11;6.70;;;5.70;;
2656;SDS011;1338;48.176;11.792;2023-05-18T05:13:39;6.67;;;5.50;;
2656;SDS011;1338;48.176;11.792;2023-05-18T05:16:10;7.77;;;6.97;;
2656;SDS011;1338;48.176;11.792;2023-05-18T05:18:38;7.20;;;6.47;;
2656;SDS011;1338;48.176;11.792;2023-05-18T05:21:07;8.90;;;7.13;;
2656;SDS011;1338;48.176;11.792;2023-05-18T05:23:36;8.00;;;6.77;;
2656;SDS011;1338;48.176;11.792;2023-05-18T05:26:04;9.90;;;7.33;;
2656;SDS011;1338;48.176;11.792;2023-05-18T05:28:33;9.40;;;6.70;;
2656;SDS011;1338;48.176;11.792;2023-05-18T05:31:01;9.83;;;7.60;;
2656;SDS011;1338;48.176;11.792;2023-05-18T05:33:32;7.33;;;6.20;;
2656;SDS011;1338;48.176;11.792;2023-05-18T05:36:00;10.37;;;8.00;;
2656;SDS011;1338;48.176;11.792;2023-05-18T05:38:31;9.33;;;8.40;;
2656;SDS011;1338;48.176;11.792;2023-05-18T05:40:59;6.87;;;5.97;;
2656;SDS011;1338;48.176;11.792;2023-05-18T05:43:28;11.27;;;7.30;;
2656;SDS011;1338;48.176;11.792;2023-05-18T05:45:56;9.97;;;7.00;;
2656;SDS011;1338;48.176;11.792;2023-05-18T05:48:24;10.90;;;7.97;;
2656;SDS011;1338;48.176;11.792;2023-05-18T05:50:54;7.23;;;6.53;;
2656;SDS011;1338;48.176;11.792;2023-05-18T05:53:22;8.87;;;6.20;;
2656;SDS011;1338;48.176;11.792;2023-05-18T05:55:51;7.83;;;6.63;;
2656;SDS011;1338;48.176;11.792;2023-05-18T05:58:19;6.37;;;5.77;;
2656;SDS011;1338;48.176;11.792;2023-05-18T06:00:52;7.20;;;5.70;;
2656;SDS011;1338;48.176;11.792;2023-05-18T06:03:21;8.50;;;6.90;;
2656;SDS011;1338;48.176;11.792;2023-05-18T06:05:49;6.73;;;6.00;;
2656;SDS011;1338;48.176;11.792;2023-05-18T06:08:22;7.53;;;6.13;;
2656;SDS011;1338;48.176;11.792;2023-05-18T06:10:50;8.00;;;6.97;;
2656;SDS011;1338;48.176;11.792;2023-05-18T06:13:19;5.97;;;5.37;;
2656;SDS011;1338;48.176;11.792;2023-05-18T06:15:49;6.70;;;6.00;;
2656;SDS011;1338;48.176;11.792;2023-05-18T06:18:18;6.20;;;5.60;;
2656;SDS011;1338;48.176;11.792;2023-05-18T06:20:48;5.87;;;5.30;;
2656;SDS011;1338;48.176;11.792;2023-05-18T06:23:18;6.27;;;5.73;;
2656;SDS011;1338;48.176;11.792;2023-05-18T06:26:01;8.60;;;6.50;;
2656;SDS011;1338;48.176;11.792;2023-05-18T06:28:32;8.33;;;6.30;;
2656;SDS011;1338;48.176;11.792;2023-05-18T06:31:10;6.20;;;4.80;;
2656;SDS011;1338;48.176;11.792;2023-05-18T06:33:52;7.30;;;6.07;;
2656;SDS011;1338;48.176;11.792;2023-05-18T06:36:21;6.77;;;6.07;;
2656;SDS011;1338;48.176;11.792;2023-05-18T06:38:49;7.67;;;6.80;;
2656;SDS011;1338;48.176;11.792;2023-05-18T06:41:19;6.00;;;5.50;;
2656;SDS011;1338;48.176;11.792;2023-05-18T06:43:47;6.07;;;5.47;;
2656;SDS011;1338;48.176;11.792;2023-05-18T06:46:28;5.40;;;4.90;;
2656;SDS011;1338;48.176;11.792;2023-05-18T06:48:59;6.20;;;5.60;;
2656;SDS011;1338;48.176;11.792;2023-05-18T06:51:28;6.33;;;5.67;;
2656;SDS011;1338;48.176;11.792;2023-05-18T06:53:56;6.17;;;5.50;;
2656;SDS011;1338;48.176;11.792;2023-05-18T06:56:26;6.10;;;5.30;;
2656;SDS011;1338;48.176;11.792;2023-05-18T06:58:54;5.70;;;5.20;;
2656;SDS011;1338;48.176;11.792;2023-05-18T07:01:25;6.20;;;5.10;;
2656;SDS011;1338;48.176;11.792;2023-05-18T07:03:57;8.10;;;5.70;;
2656;SDS011;1338;48.176;11.792;2023-05-18T07:06:26;6.37;;;5.00;;
2656;SDS011;1338;48.176;11.792;2023-05-18T07:08:54;6.63;;;5.10;;
2656;SDS011;1338;48.176;11.792;2023-05-18T07:11:22;7.23;;;5.20;;
2656;SDS011;1338;48.176;11.792;2023-05-18T07:13:56;6.97;;;4.90;;
2656;SDS011;1338;48.176;11.792;2023-05-18T07:16:24;4.97;;;4.47;;
2656;SDS011;1338;48.176;11.792;2023-05-18T07:18:53;6.63;;;4.63;;
2656;SDS011;1338;48.176;11.792;2023-05-18T07:21:23;4.93;;;4.53;;
2656;SDS011;1338;48.176;11.792;2023-05-18T07:23:51;5.23;;;4.10;;
2656;SDS011;1338;48.176;11.792;2023-05-18T07:26:19;4.27;;;3.90;;
2656;SDS011;1338;48.176;11.792;2023-05-18T07:28:48;5.90;;;3.67;;
2656;SDS011;1338;48.176;11.792;2023-05-18T07:31:18;5.60;;;4.10;;
2656;SDS011;1338;48.176;11.792;2023-05-18T07:33:47;4.30;;;3.90;;
2656;SDS011;1338;48.176;11.792;2023-05-18T07:36:15;3.80;;;3.50;;
2656;SDS011;1338;48.176;11.792;2023-05-18T07:38:43;6.30;;;4.20;;
2656;SDS011;1338;48.176;11.792;2023-05-18T07:41:12;5.67;;;4.30;;
2656;SDS011;1338;48.176;11.792;2023-05-18T07:43:40;4.27;;;3.87;;
2656;SDS011;1338;48.176;11.792;2023-05-18T07:46:08;5.37;;;4.10;;
2656;SDS011;1338;48.176;11.792;2023-05-18T07:48:38;5.00;;;4.30;;
2656;SDS011;1338;48.176;11.792;2023-05-18T07:51:06;3.80;;;3.50;;
2656;SDS011;1338;48.176;11.792;2023-05-18T07:53:35;4.33;;;3.73;;
2656;SDS011;1338;48.176;11.792;2023-05-18T07:56:03;5.90;;;4.27;;
2656;SDS011;1338;48.176;11.792;2023-05-18T07:58:32;4.43;;;2.80;;
2656;SDS011;1338;48.176;11.792;2023-05-18T08:01:01;5.23;;;4.13;;
2656;SDS011;1338;48.176;11.792;2023-05-18T08:03:29;4.80;;;4.20;;
2656;SDS011;1338;48.176;11.792;2023-05-18T08:05:59;4.63;;;4.10;;
2656;SDS011;1338;48.176;11.792;2023-05-18T08:08:27;4.10;;;3.70;;
2656;SDS011;1338;48.176;11.792;2023-05-18T08:10:55;4.60;;;3.93;;
2656;SDS011;1338;48.176;11.792;2023-05-18T08:13:23;5.80;;;4.30;;
2656;SDS011;1338;48.176;11.792;2023-05-18T08:15:52;4.87;;;4.13;;
2656;SDS011;1338;48.176;11.792;2023-05-18T08:18:36;4.70;;;4.00;;
2656;SDS011;1338;48.176;11.792;2023-05-18T08:21:06;4.23;;;3.80;;
2656;SDS011;1338;48.176;11.792;2023-05-18T08:23:36;3.97;;;3.67;;
2656;SDS011;1338;48.176;11.792;2023-05-18T08:26:04;8.90;;;3.80;;
2656;SDS011;1338;48.176;11.792;2023-05-18T08:28:33;4.23;;;3.83;;
2656;SDS011;1338;48.176;11.792;2023-05-18T08:31:02;4.40;;;3.90;;
2656;SDS011;1338;48.176;11.792;2023-05-18T08:33:30;4.37;;;3.97;;
2656;SDS011;1338;48.176;11.792;2023-05-18T08:35:58;4.27;;;3.87;;
2656;SDS011;1338;48.176;11.792;2023-05-18T08:38:28;4.70;;;3.87;;
2656;SDS011;1338;48.176;11.792;2023-05-18T08:40:57;3.67;;;3.30;;
2656;SDS011;1338;48.176;11.792;2023-05-18T08:43:32;6.40;;;3.73;;
2656;SDS011;1338;48.176;11.792;2023-05-18T08:46:06;4.33;;;3.57;;
2656;SDS011;1338;48.176;11.792;2023-05-18T08:48:42;4.07;;;3.30;;
2656;SDS011;1338;48.176;11.792;2023-05-18T08:51:12;4.30;;;3.73;;
2656;SDS011;1338;48.176;11.792;2023-05-18T08:53:46;3.53;;;3.23;;
2656;SDS011;1338;48.176;11.792;2023-05-18T08:56:19;4.27;;;3.87;;
2656;SDS011;1338;48.176;11.792;2023-05-18T08:58:50;5.23;;;3.43;;
2656;SDS011;1338;48.176;11.792;2023-05-18T09:01:21;6.50;;;4.07;;
2656;SDS011;1338;48.176;11.792;2023-05-18T09:03:54;4.37;;;3.60;;
2656;SDS011;1338;48.176;11.792;2023-05-18T09:06:23;4.77;;;4.37;;
2656;SDS011;1338;48.176;11.792;2023-05-18T09:08:55;5.17;;;4.30;;
2656;SDS011;1338;48.176;11.792;2023-05-18T09:11:24;4.30;;;3.90;;
2656;SDS011;1338;48.176;11.792;2023-05-18T09:13:53;4.70;;;4.30;;
2656;SDS011;1338;48.176;11.792;2023-05-18T09:16:21;3.87;;;3.47;;
2656;SDS011;1338;48.176;11.792;2023-05-18T09:18:50;4.33;;;3.60;;
2656;SDS011;1338;48.176;11.792;2023-05-18T09:21:18;4.83;;;4.30;;
2656;SDS011;1338;48.176;11.792;2023-05-18T09:23:46;5.10;;;4.60;;
2656;SDS011;1338;48.176;11.792;2023-05-18T09:26:16;3.70;;;3.33;;
2656;SDS011;1338;48.176;11.792;2023-05-18T09:28:46;4.23;;;3.33;;
2656;SDS011;1338;48.176;11.792;2023-05-18T09:31:19;5.00;;;4.50;;
2656;SDS011;1338;48.176;11.792;2023-05-18T09:33:50;4.10;;;3.63;;
2656;SDS011;1338;48.176;11.792;2023-05-18T09:36:22;6.03;;;4.10;;
2656;SDS011;1338;48.176;11.792;2023-05-18T09:38:52;5.07;;;4.20;;
2656;SDS011;1338;48.176;11.792;2023-05-18T09:41:24;4.40;;;3.80;;
2656;SDS011;1338;48.176;11.792;2023-05-18T09:43:53;4.50;;;4.10;;
2656;SDS011;1338;48.176;11.792;2023-05-18T09:46:21;4.50;;;3.87;;
2656;SDS011;1338;48.176;11.792;2023-05-18T09:48:50;5.47;;;4.30;;
2656;SDS011;1338;48.176;11.792;2023-05-18T09:51:20;4.63;;;4.00;;
2656;SDS011;1338;48.176;11.792;2023-05-18T09:53:52;4.40;;;3.97;;
2656;SDS011;1338;48.176;11.792;2023-05-18T09:56:22;4.87;;;4.47;;
2656;SDS011;1338;48.176;11.792;2023-05-18T09:58:51;4.63;;;4.07;;
2656;SDS011;1338;48.176;11.792;2023-05-18T10:01:19;3.87;;;3.53;;
2656;SDS011;1338;48.176;11.792;2023-05-18T10:03:48;3.57;;;3.27;;
2656;SDS011;1338;48.176;11.792;2023-05-18T10:06:16;3.90;;;3.57;;
2656;SDS011;1338;48.176;11.792;2023-05-18T10:08:46;4.50;;;4.10;;
2656;SDS011;1338;48.176;11.792;2023-05-18T10:11:16;3.47;;;3.17;;
2656;SDS011;1338;48.176;11.792;2023-05-18T10:13:50;4.10;;;3.70;;
2656;SDS011;1338;48.176;11.792;2023-05-18T10:16:21;3.87;;;3.57;;
2656;SDS011;1338;48.176;11.792;2023-05-18T10:18:51;5.53;;;3.63;;
2656;SDS011;1338;48.176;11.792;2023-05-18T10:21:22;4.20;;;3.70;;
2656;SDS011;1338;48.176;11.792;2023-05-18T10:23:54;5.83;;;4.00;;
2656;SDS011;1338;48.176;11.792;2023-05-18T10:26:23;5.77;;;3.80;;
2656;SDS011;1338;48.176;11.792;2023-05-18T10:28:56;3.73;;;3.30;;
2656;SDS011;1338;48.176;11.792;2023-05-18T10:31:26;3.10;;;2.90;;
2656;SDS011;1338;48.176;11.792;2023-05-18T10:33:57;3.80;;;3.47;;
2656;SDS011;1338;48.176;11.792;2023-05-18T10:36:26;4.73;;;3.60;;
2656;SDS011;1338;48.176;11.792;2023-05-18T10:38:58;3.70;;;3.40;;
2656;SDS011;1338;48.176;11.792;2023-05-18T10:41:27;5.30;;;3.60;;
2656;SDS011;1338;48.176;11.792;2023-05-18T10:43:59;4.10;;;3.70;;
2656;SDS011;1338;48.176;11.792;2023-05-18T10:46:29;3.70;;;3.40;;
2656;SDS011;1338;48.176;11.792;2023-05-18T10:48:58;4.23;;;3.30;;
2656;SDS011;1338;48.176;11.792;2023-05-18T10:51:30;3.53;;;3.17;;
2656;SDS011;1338;48.176;11.792;2023-05-18T10:54:06;3.60;;;3.30;;
2656;SDS011;1338;48.176;11.792;2023-05-18T10:56:38;4.00;;;3.47;;
2656;SDS011;1338;48.176;11.792;2023-05-18T10:59:11;6.80;;;3.40;;
2656;SDS011;1338;48.176;11.792;2023-05-18T11:01:40;4.13;;;3.33;;
2656;SDS011;1338;48.176;11.792;2023-05-18T11:04:10;4.57;;;4.00;;
2656;SDS011;1338;48.176;11.792;2023-05-18T11:06:38;4.27;;;3.87;;
2656;SDS011;1338;48.176;11.792;2023-05-18T11:09:06;4.00;;;3.40;;
2656;SDS011;1338;48.176;11.792;2023-05-18T11:11:50;4.20;;;3.77;;
2656;SDS011;1338;48.176;11.792;2023-05-18T11:14:25;3.90;;;3.60;;
2656;SDS011;1338;48.176;11.792;2023-05-18T11:22:41;3.37;;;3.07;;
2656;SDS011;1338;48.176;11.792;2023-05-18T11:28:03;5.17;;;4.10;;
2656;SDS011;1338;48.176;11.792;2023-05-18T11:30:47;5.07;;;3.50;;
2656;SDS011;1338;48.176;11.792;2023-05-18T11:33:23;3.70;;;3.40;;
2656;SDS011;1338;48.176;11.792;2023-05-18T11:35:58;4.60;;;3.40;;
2656;SDS011;1338;48.176;11.792;2023-05-18T11:38:43;5.47;;;3.83;;
2656;SDS011;1338;48.176;11.792;2023-05-18T11:41:30;4.17;;;3.70;;
2656;SDS011;1338;48.176;11.792;2023-05-18T11:44:03;3.70;;;3.40;;
2656;SDS011;1338;48.176;11.792;2023-05-18T11:46:36;4.20;;;3.77;;
2656;SDS011;1338;48.176;11.792;2023-05-18T11:49:06;4.53;;;4.10;;
2656;SDS011;1338;48.176;11.792;2023-05-18T11:54:24;3.80;;;3.40;;
2656;SDS011;1338;48.176;11.792;2023-05-18T11:56:53;4.00;;;3.70;;
2656;SDS011;1338;48.176;11.792;2023-05-18T11:59:31;4.57;;;4.17;;
2656;SDS011;1338;48.176;11.792;2023-05-18T12:02:02;4.40;;;4.00;;
2656;SDS011;1338;48.176;11.792;2023-05-18T12:04:32;4.13;;;3.77;;
2656;SDS011;1338;48.176;11.792;2023-05-18T12:07:03;4.23;;;3.83;;
2656;SDS011;1338;48.176;11.792;2023-05-18T12:09:33;3.67;;;3.37;;
2656;SDS011;1338;48.176;11.792;2023-05-18T12:12:02;4.57;;;3.70;;
2656;SDS011;1338;48.176;11.792;2023-05-18T12:14:30;3.73;;;3.43;;
2656;SDS011;1338;48.176;11.792;2023-05-18T12:17:02;3.17;;;2.90;;
2656;SDS011;1338;48.176;11.792;2023-05-18T12:19:35;4.90;;;4.10;;
2656;SDS011;1338;48.176;11.792;2023-05-18T12:22:04;4.30;;;4.00;;
2656;SDS011;1338;48.176;11.792;2023-05-18T12:24:35;4.00;;;3.70;;
2656;SDS011;1338;48.176;11.792;2023-05-18T12:27:04;4.90;;;3.77;;
2656;SDS011;1338;48.176;11.792;2023-05-18T12:29:36;4.27;;;3.67;;
2656;SDS011;1338;48.176;11.792;2023-05-18T12:32:07;4.33;;;3.63;;
2656;SDS011;1338;48.176;11.792;2023-05-18T12:34:37;4.70;;;4.30;;
2656;SDS011;1338;48.176;11.792;2023-05-18T12:37:06;4.03;;;3.73;;
2656;SDS011;1338;48.176;11.792;2023-05-18T12:39:34;4.20;;;3.60;;
2656;SDS011;1338;48.176;11.792;2023-05-18T12:42:09;4.00;;;3.70;;
2656;SDS011;1338;48.176;11.792;2023-05-18T12:44:39;5.83;;;4.00;;
2656;SDS011;1338;48.176;11.792;2023-05-18T12:47:11;4.40;;;4.00;;
2656;SDS011;1338;48.176;11.792;2023-05-18T12:49:41;4.20;;;3.80;;
2656;SDS011;1338;48.176;11.792;2023-05-18T12:52:14;3.60;;;3.30;;
2656;SDS011;1338;48.176;11.792;2023-05-18T12:54:49;4.07;;;3.77;;
2656;SDS011;1338;48.176;11.792;2023-05-18T12:57:24;4.00;;;3.70;;
2656;SDS011;1338;48.176;11.792;2023-05-18T12:59:53;3.87;;;3.50;;
2656;SDS011;1338;48.176;11.792;2023-05-18T13:02:33;5.30;;;4.07;;
2656;SDS011;1338;48.176;11.792;2023-05-18T13:05:06;3.53;;;3.23;;
2656;SDS011;1338;48.176;11.792;2023-05-18T13:07:36;4.13;;;3.73;;
2656;SDS011;1338;48.176;11.792;2023-05-18T13:10:05;3.43;;;3.13;;
2656;SDS011;1338;48.176;11.792;2023-05-18T13:12:42;4.43;;;3.67;;
2656;SDS011;1338;48.176;11.792;2023-05-18T13:15:12;4.87;;;3.93;;
2656;SDS011;1338;48.176;11.792;2023-05-18T13:20:29;5.30;;;4.17;;
2656;SDS011;1338;48.176;11.792;2023-05-18T13:23:02;4.10;;;3.70;;
2656;SDS011;1338;48.176;11.792;2023-05-18T13:25:31;3.90;;;3.60;;
2656;SDS011;1338;48.176;11.792;2023-05-18T13:27:59;4.47;;;3.17;;
2656;SDS011;1338;48.176;11.792;2023-05-18T13:30:27;4.03;;;3.63;;
2656;SDS011;1338;48.176;11.792;2023-05-18T13:32:56;3.50;;;3.30;;
2656;SDS011;1338;48.176;11.792;2023-05-18T13:35:26;3.67;;;3.37;;
2656;SDS011;1338;48.176;11.792;2023-05-18T13:37:55;4.77;;;4.10;;
2656;SDS011;1338;48.176;11.792;2023-05-18T13:40:23;4.10;;;3.70;;
2656;SDS011;1338;48.176;11.792;2023-05-18T13:42:51;4.10;;;3.70;;
2656;SDS011;1338;48.176;11.792;2023-05-18T13:45:19;3.70;;;3.40;;
2656;SDS011;1338;48.176;11.792;2023-05-18T13:47:48;4.17;;;3.70;;
2656;SDS011;1338;48.176;11.792;2023-05-18T13:50:17;3.17;;;2.97;;
2656;SDS011;1338;48.176;11.792;2023-05-18T13:52:47;3.57;;;3.27;;
2656;SDS011;1338;48.176;11.792;2023-05-18T13:55:16;3.77;;;3.47;;
2656;SDS011;1338;48.176;11.792;2023-05-18T13:57:44;4.30;;;3.90;;
2656;SDS011;1338;48.176;11.792;2023-05-18T14:00:13;3.60;;;3.30;;
2656;SDS011;1338;48.176;11.792;2023-05-18T14:02:43;3.70;;;3.40;;
2656;SDS011;1338;48.176;11.792;2023-05-18T14:05:11;6.77;;;3.90;;
2656;SDS011;1338;48.176;11.792;2023-05-18T14:07:41;4.07;;;3.53;;
2656;SDS011;1338;48.176;11.792;2023-05-18T14:10:12;3.50;;;3.17;;
2656;SDS011;1338;48.176;11.792;2023-05-18T14:12:40;3.63;;;3.20;;
2656;SDS011;1338;48.176;11.792;2023-05-18T14:15:09;3.53;;;3.23;;
2656;SDS011;1338;48.176;11.792;2023-05-18T14:17:39;3.63;;;3.33;;
2656;SDS011;1338;48.176;11.792;2023-05-18T14:20:08;3.50;;;3.20;;
2656;SDS011;1338;48.176;11.792;2023-05-18T14:22:36;3.23;;;2.97;;
2656;SDS011;1338;48.176;11.792;2023-05-18T14:25:05;3.63;;;3.33;;
2656;SDS011;1338;48.176;11.792;2023-05-18T14:27:35;3.20;;;2.90;;
2656;SDS011;1338;48.176;11.792;2023-05-18T14:30:03;3.60;;;3.30;;
2656;SDS011;1338;48.176;11.792;2023-05-18T14:32:33;3.70;;;3.40;;
2656;SDS011;1338;48.176;11.792;2023-05-18T14:35:01;3.70;;;3.40;;
2656;SDS011;1338;48.176;11.792;2023-05-18T14:37:29;3.77;;;3.47;;
2656;SDS011;1338;48.176;11.792;2023-05-18T14:39:58;4.17;;;3.80;;
2656;SDS011;1338;48.176;11.792;2023-05-18T14:42:26;3.70;;;3.40;;
2656;SDS011;1338;48.176;11.792;2023-05-18T14:44:56;3.30;;;3.00;;
2656;SDS011;1338;48.176;11.792;2023-05-18T14:47:24;3.50;;;3.00;;
2656;SDS011;1338;48.176;11.792;2023-05-18T14:49:52;3.60;;;3.30;;
2656;SDS011;1338;48.176;11.792;2023-05-18T14:52:21;3.30;;;2.90;;
2656;SDS011;1338;48.176;11.792;2023-05-18T14:54:49;3.80;;;3.07;;
2656;SDS011;1338;48.176;11.792;2023-05-18T14:57:17;3.07;;;2.87;;
2656;SDS011;1338;48.176;11.792;2023-05-18T14:59:45;3.37;;;2.53;;
2656;SDS011;1338;48.176;11.792;2023-05-18T15:02:15;3.53;;;2.87;;
2656;SDS011;1338;48.176;11.792;2023-05-18T15:04:43;2.60;;;2.40;;
2656;SDS011;1338;48.176;11.792;2023-05-18T15:07:12;3.53;;;2.63;;
2656;SDS011;1338;48.176;11.792;2023-05-18T15:09:40;3.40;;;2.77;;
2656;SDS011;1338;48.176;11.792;2023-05-18T15:12:08;3.10;;;2.60;;
2656;SDS011;1338;48.176;11.792;2023-05-18T15:14:36;2.40;;;2.20;;
2656;SDS011;1338;48.176;11.792;2023-05-18T15:17:05;2.70;;;2.50;;
2656;SDS011;1338;48.176;11.792;2023-05-18T15:19:40;2.70;;;2.50;;
2656;SDS011;1338;48.176;11.792;2023-05-18T15:22:08;2.73;;;2.53;;
2656;SDS011;1338;48.176;11.792;2023-05-18T15:24:36;2.57;;;2.37;;
2656;SDS011;1338;48.176;11.792;2023-05-18T15:27:05;5.60;;;3.37;;
2656;SDS011;1338;48.176;11.792;2023-05-18T15:29:34;4.90;;;2.80;;
2656;SDS011;1338;48.176;11.792;2023-05-18T15:32:02;3.10;;;2.87;;